createdAt,value
2023-06-25T00:00:34.323Z,23.00
2023-06-25T00:03:01.471Z,22.90
2023-06-25T00:05:28.636Z,22.90
2023-06-25T00:07:55.642Z,22.90
2023-06-25T00:10:22.628Z,23.00
2023-06-25T00:12:49.661Z,22.80
2023-06-25T00:15:16.700Z,22.70
2023-06-25T00:17:48.759Z,22.70
2023-06-25T00:20:17.360Z,22.60
2023-06-25T00:22:57.573Z,22.60
2023-06-25T00:25:32.952Z,22.60
2023-06-25T00:28:00.948Z,22.60
2023-06-25T00:30:28.121Z,22.50
2023-06-25T00:32:58.203Z,22.50
2023-06-25T00:35:29.531Z,22.60
2023-06-25T00:37:58.281Z,22.50
2023-06-25T00:40:25.885Z,22.50
2023-06-25T00:42:58.092Z,22.50
2023-06-25T00:45:26.151Z,22.40
2023-06-25T00:47:54.866Z,22.40
2023-06-25T00:50:25.589Z,22.30
2023-06-25T00:52:53.616Z,22.30
2023-06-25T00:55:21.404Z,22.20
2023-06-25T00:57:49.705Z,22.20
2023-06-25T01:00:19.535Z,22.20
2023-06-25T01:03:03.842Z,22.20
2023-06-25T01:06:00.068Z,22.20
2023-06-25T01:08:37.365Z,22.20
2023-06-25T01:11:07.035Z,22.10
2023-06-25T01:13:33.984Z,22.10
2023-06-25T01:16:01.027Z,22.10
2023-06-25T01:18:28.048Z,22.10
2023-06-25T01:20:57.639Z,22.10
2023-06-25T01:23:25.204Z,22.10
2023-06-25T01:25:52.406Z,22.10
2023-06-25T01:28:22.483Z,22.10
2023-06-25T01:30:53.260Z,22.00
2023-06-25T01:33:26.747Z,22.00
2023-06-25T01:35:54.460Z,22.10
2023-06-25T01:38:21.970Z,22.00
2023-06-25T01:40:49.121Z,21.90
2023-06-25T01:43:16.364Z,21.90
2023-06-25T01:45:43.484Z,21.90
2023-06-25T01:48:11.137Z,21.80
2023-06-25T01:50:38.395Z,21.80
2023-06-25T01:53:05.422Z,21.80
2023-06-25T01:55:32.447Z,21.70
2023-06-25T01:57:59.519Z,21.70
2023-06-25T02:00:30.402Z,21.70
2023-06-25T02:03:04.327Z,21.70
2023-06-25T02:05:31.734Z,21.70
2023-06-25T02:07:58.933Z,21.60
2023-06-25T02:10:25.889Z,21.50
2023-06-25T02:12:52.816Z,21.50
2023-06-25T02:15:20.018Z,21.50
2023-06-25T02:17:47.006Z,21.40
2023-06-25T02:20:14.325Z,21.40
2023-06-25T02:22:41.399Z,21.30
2023-06-25T02:25:08.866Z,21.40
2023-06-25T02:27:36.087Z,21.40
2023-06-25T02:30:03.879Z,21.30
2023-06-25T02:32:31.170Z,21.30
2023-06-25T02:34:58.154Z,21.30
2023-06-25T02:37:25.131Z,21.30
2023-06-25T02:39:52.196Z,21.20
2023-06-25T02:42:19.273Z,21.20
2023-06-25T02:44:47.448Z,21.20
2023-06-25T02:47:14.561Z,21.10
2023-06-25T02:49:41.820Z,21.10
2023-06-25T02:52:09.086Z,21.00
2023-06-25T02:54:36.280Z,21.10
2023-06-25T02:57:03.382Z,21.00
2023-06-25T02:59:32.193Z,20.90
2023-06-25T03:02:02.649Z,20.90
2023-06-25T03:04:29.635Z,20.90
2023-06-25T03:06:57.857Z,20.90
2023-06-25T03:09:24.964Z,20.90
2023-06-25T03:11:52.321Z,20.80
2023-06-25T03:14:33.994Z,20.80
2023-06-25T03:17:02.402Z,20.80
2023-06-25T03:19:29.522Z,20.70
2023-06-25T03:21:56.438Z,20.90
2023-06-25T03:24:23.754Z,20.70
2023-06-25T03:26:52.681Z,20.70
2023-06-25T03:29:22.341Z,20.60
2023-06-25T03:31:49.590Z,20.70
2023-06-25T03:34:20.754Z,20.70
2023-06-25T03:36:48.889Z,20.70
2023-06-25T03:39:15.859Z,20.70
2023-06-25T03:41:43.606Z,20.70
2023-06-25T03:44:10.593Z,20.70
2023-06-25T03:46:37.694Z,20.70
2023-06-25T03:49:05.906Z,20.70
2023-06-25T03:51:35.700Z,20.80
2023-06-25T03:54:05.901Z,20.70
2023-06-25T03:56:35.698Z,20.80
2023-06-25T03:59:02.748Z,20.80
2023-06-25T04:01:29.925Z,20.70
2023-06-25T04:03:57.574Z,20.70
2023-06-25T04:06:24.703Z,20.80
2023-06-25T04:08:53.191Z,20.70
2023-06-25T04:11:20.871Z,20.80
2023-06-25T04:13:48.125Z,20.80
2023-06-25T04:16:15.376Z,20.80
2023-06-25T04:18:43.262Z,20.80
2023-06-25T04:21:10.805Z,20.80
2023-06-25T04:23:37.870Z,20.90
2023-06-25T04:26:06.076Z,20.80
2023-06-25T04:28:33.131Z,20.80
2023-06-25T04:31:01.707Z,20.70
2023-06-25T04:33:28.726Z,20.70
2023-06-25T04:35:55.694Z,20.90
2023-06-25T04:38:23.772Z,20.70
2023-06-25T04:40:52.442Z,20.70
2023-06-25T04:43:19.496Z,20.70
2023-06-25T04:45:47.109Z,20.70
2023-06-25T04:48:14.404Z,20.80
2023-06-25T04:50:41.424Z,20.70
2023-06-25T04:53:08.385Z,20.80
2023-06-25T04:55:35.793Z,20.80
2023-06-25T04:58:04.037Z,20.90
2023-06-25T05:00:31.058Z,20.90
2023-06-25T05:02:58.209Z,21.00
2023-06-25T05:05:25.264Z,21.00
2023-06-25T05:07:52.384Z,21.10
2023-06-25T05:10:22.203Z,21.30
2023-06-25T05:12:49.344Z,21.30
2023-06-25T05:15:17.842Z,21.30
2023-06-25T05:17:45.185Z,21.40
2023-06-25T05:20:12.591Z,21.40
2023-06-25T05:22:39.482Z,21.50
2023-06-25T05:25:06.688Z,21.60
2023-06-25T05:27:33.640Z,21.60
2023-06-25T05:30:00.708Z,21.80
2023-06-25T05:32:27.669Z,21.80
2023-06-25T05:34:54.715Z,21.90
2023-06-25T05:37:21.653Z,22.10
2023-06-25T05:39:48.686Z,22.10
2023-06-25T05:42:15.625Z,22.20
2023-06-25T05:44:42.569Z,22.20
2023-06-25T05:47:10.736Z,22.30
2023-06-25T05:49:37.896Z,22.40
2023-06-25T05:52:05.279Z,22.40
2023-06-25T05:54:32.225Z,22.60
2023-06-25T05:56:59.199Z,22.60
2023-06-25T05:59:26.298Z,22.70
2023-06-25T06:01:53.322Z,22.80
2023-06-25T06:04:21.070Z,22.80
2023-06-25T06:06:48.367Z,22.90
2023-06-25T06:09:15.415Z,23.00
2023-06-25T06:11:42.357Z,23.10
2023-06-25T06:14:09.671Z,23.10
2023-06-25T06:16:36.709Z,23.20
2023-06-25T06:19:03.758Z,23.20
2023-06-25T06:21:30.683Z,23.30
2023-06-25T06:23:57.745Z,23.30
2023-06-25T06:26:24.707Z,23.40
2023-06-25T06:28:51.661Z,23.40
2023-06-25T06:31:18.638Z,23.60
2023-06-25T06:33:45.592Z,23.70
2023-06-25T06:36:13.966Z,23.70
2023-06-25T06:38:41.290Z,23.80
2023-06-25T06:41:08.272Z,23.90
2023-06-25T06:43:35.191Z,24.00
2023-06-25T06:46:02.070Z,24.00
2023-06-25T06:48:29.022Z,24.10
2023-06-25T06:50:55.994Z,24.10
2023-06-25T06:53:23.008Z,24.20
2023-06-25T06:55:50.021Z,24.30
2023-06-25T06:58:17.000Z,24.40
2023-06-25T07:00:44.011Z,24.60
2023-06-25T07:03:11.005Z,24.60
2023-06-25T07:05:39.240Z,24.60
2023-06-25T07:08:06.766Z,24.70
2023-06-25T07:22:02.166Z,24.80
2023-06-25T07:24:29.146Z,25.80
2023-06-25T07:26:57.210Z,25.80
2023-06-25T07:29:24.218Z,25.80
2023-06-25T07:31:51.419Z,25.80
2023-06-25T07:34:18.609Z,25.80
2023-06-25T07:36:45.568Z,25.80
2023-06-25T07:39:30.659Z,25.80
2023-06-25T07:41:58.435Z,26.00
2023-06-25T07:44:45.903Z,26.10
2023-06-25T07:47:12.612Z,26.20
2023-06-25T07:49:39.638Z,26.30
2023-06-25T07:52:06.881Z,26.30
2023-06-25T07:54:33.973Z,26.40
2023-06-25T07:57:01.309Z,26.40
2023-06-25T07:59:36.002Z,26.50
2023-06-25T08:02:13.902Z,26.50
2023-06-25T08:04:41.108Z,26.70
2023-06-25T08:07:08.322Z,26.70
2023-06-25T08:09:35.317Z,26.80
2023-06-25T08:12:02.205Z,26.90
2023-06-25T08:14:29.674Z,27.10
2023-06-25T08:16:56.751Z,27.10
2023-06-25T08:19:23.732Z,27.10
2023-06-25T08:21:50.663Z,27.20
2023-06-25T08:24:19.106Z,27.20
2023-06-25T08:26:46.235Z,27.30
2023-06-25T08:29:13.499Z,27.50
2023-06-25T08:31:40.549Z,27.40
2023-06-25T08:34:08.088Z,27.40
2023-06-25T08:36:35.011Z,27.40
2023-06-25T08:39:01.969Z,27.50
2023-06-25T08:41:29.586Z,27.60
2023-06-25T08:43:56.696Z,27.70
2023-06-25T08:46:25.252Z,27.80
2023-06-25T08:48:55.150Z,27.90
2023-06-25T08:51:26.226Z,28.00
2023-06-25T08:53:56.157Z,28.10
2023-06-25T08:56:23.158Z,28.10
2023-06-25T08:58:50.121Z,28.10
2023-06-25T09:01:17.408Z,28.20
2023-06-25T09:03:44.595Z,28.30
2023-06-25T09:06:16.286Z,28.40
2023-06-25T09:08:44.240Z,28.40
2023-06-25T09:11:12.407Z,28.40
2023-06-25T09:13:40.660Z,28.60
2023-06-25T09:16:11.431Z,28.70
2023-06-25T09:18:40.061Z,28.80
2023-06-25T09:21:11.756Z,28.80
2023-06-25T09:23:39.319Z,28.80
2023-06-25T09:26:14.689Z,28.90
2023-06-25T09:28:54.281Z,29.00
2023-06-25T09:31:24.209Z,29.10
2023-06-25T09:33:52.823Z,29.20
2023-06-25T09:36:37.142Z,29.30
2023-06-25T09:39:09.846Z,29.40
2023-06-25T09:41:42.874Z,29.50
2023-06-25T09:44:12.513Z,29.60
2023-06-25T09:46:41.401Z,29.70
2023-06-25T09:49:08.918Z,29.80
2023-06-25T09:52:11.141Z,29.90
2023-06-25T09:54:41.394Z,30.00
2023-06-25T09:57:18.036Z,30.00
2023-06-25T09:59:45.982Z,30.00
2023-06-25T10:02:15.301Z,30.00
2023-06-25T10:04:46.028Z,30.20
2023-06-25T10:07:16.379Z,30.30
2023-06-25T10:09:57.463Z,30.40
2023-06-25T10:12:25.470Z,30.60
2023-06-25T10:14:55.646Z,30.60
2023-06-25T10:17:25.938Z,30.60
2023-06-25T10:19:55.954Z,30.70
2023-06-25T10:22:27.472Z,30.70
2023-06-25T10:25:00.064Z,30.70
2023-06-25T10:27:29.508Z,30.80
2023-06-25T10:29:59.786Z,30.80
2023-06-25T10:32:29.669Z,30.80
2023-06-25T10:35:02.478Z,30.80
2023-06-25T10:37:31.220Z,30.70
2023-06-25T10:40:06.543Z,30.80
2023-06-25T10:42:36.406Z,30.90
2023-06-25T10:45:08.206Z,31.00
2023-06-25T10:47:35.913Z,31.00
2023-06-25T10:50:03.198Z,31.00
2023-06-25T10:52:31.030Z,31.00
2023-06-25T10:55:03.101Z,31.10
2023-06-25T10:57:34.903Z,31.20
2023-06-25T11:00:07.148Z,31.20
2023-06-25T11:02:35.549Z,31.20
2023-06-25T11:05:13.299Z,31.40
2023-06-25T11:07:43.023Z,31.50
2023-06-25T11:10:15.016Z,31.70
2023-06-25T11:12:44.251Z,31.80
2023-06-25T11:15:14.899Z,31.90
2023-06-25T11:17:43.969Z,31.90
2023-06-25T11:20:15.515Z,31.90
2023-06-25T11:22:45.050Z,31.90
2023-06-25T11:25:14.756Z,32.10
2023-06-25T11:27:48.404Z,32.20
2023-06-25T11:30:17.942Z,32.20
2023-06-25T11:32:45.282Z,32.50
2023-06-25T11:35:14.249Z,32.60
2023-06-25T11:37:51.612Z,32.90
2023-06-25T11:40:23.958Z,32.90
2023-06-25T11:42:52.481Z,33.00
2023-06-25T11:45:22.599Z,32.90
2023-06-25T11:47:55.788Z,32.90
2023-06-25T11:50:27.491Z,32.90
2023-06-25T11:53:00.360Z,32.90
2023-06-25T11:55:27.412Z,33.10
2023-06-25T11:57:54.531Z,33.00
2023-06-25T12:00:21.544Z,32.90
2023-06-25T12:02:52.458Z,33.00
2023-06-25T12:05:20.601Z,33.30
2023-06-25T12:07:48.124Z,33.40
2023-06-25T12:10:16.131Z,33.40
2023-06-25T12:12:46.332Z,33.50
2023-06-25T12:15:13.656Z,33.70
2023-06-25T12:17:44.134Z,33.80
2023-06-25T12:20:11.397Z,33.80
2023-06-25T12:22:38.844Z,33.80
2023-06-25T12:25:06.887Z,33.70
2023-06-25T12:27:34.073Z,33.80
2023-06-25T12:30:02.895Z,33.80
2023-06-25T12:32:30.986Z,33.80
2023-06-25T12:34:57.981Z,34.10
2023-06-25T12:37:27.058Z,34.20
2023-06-25T12:39:54.147Z,34.20
2023-06-25T12:42:23.160Z,34.20
2023-06-25T12:44:53.150Z,34.30
2023-06-25T12:47:20.392Z,34.30
2023-06-25T12:49:47.448Z,34.20
2023-06-25T12:52:14.649Z,34.30
2023-06-25T12:54:41.767Z,34.40
2023-06-25T12:57:09.729Z,34.50
2023-06-25T12:59:36.958Z,34.50
2023-06-25T13:02:04.859Z,34.60
2023-06-25T13:04:32.531Z,34.80
2023-06-25T13:06:59.655Z,34.70
2023-06-25T13:09:28.879Z,34.80
2023-06-25T13:11:56.622Z,34.90
2023-06-25T13:14:23.641Z,35.00
2023-06-25T13:16:51.617Z,35.10
2023-06-25T13:19:18.603Z,35.20
2023-06-25T13:21:50.038Z,35.10
2023-06-25T13:24:18.266Z,35.30
2023-06-25T13:26:46.089Z,35.40
2023-06-25T13:29:13.213Z,35.50
2023-06-25T13:31:40.376Z,35.50
2023-06-25T13:34:07.456Z,35.40
2023-06-25T13:36:34.471Z,35.60
2023-06-25T13:39:01.495Z,35.70
2023-06-25T13:41:28.985Z,35.70
2023-06-25T13:43:56.070Z,35.50
2023-06-25T13:46:23.270Z,35.60
2023-06-25T13:48:50.194Z,35.70
2023-06-25T13:51:17.144Z,35.70
2023-06-25T13:53:44.948Z,35.60
2023-06-25T13:56:12.063Z,35.50
2023-06-25T13:58:39.127Z,35.60
2023-06-25T14:01:06.155Z,35.70
2023-06-25T14:03:35.230Z,35.70
2023-06-25T14:06:02.314Z,35.80
2023-06-25T14:08:29.312Z,36.00
2023-06-25T14:10:56.429Z,36.00
2023-06-25T14:13:23.442Z,36.00
2023-06-25T14:15:58.714Z,35.90
2023-06-25T14:18:33.433Z,35.80
2023-06-25T14:21:00.347Z,35.80
2023-06-25T14:23:27.307Z,35.90
2023-06-25T14:25:57.038Z,35.90
2023-06-25T14:28:29.497Z,36.00
2023-06-25T14:31:00.568Z,36.00
2023-06-25T14:33:31.984Z,36.00
2023-06-25T14:35:59.261Z,36.20
2023-06-25T14:38:26.305Z,36.30
2023-06-25T14:40:53.416Z,36.50
2023-06-25T14:43:21.108Z,36.60
2023-06-25T14:45:48.124Z,36.70
2023-06-25T14:48:16.204Z,36.70
2023-06-25T14:50:43.137Z,36.60
2023-06-25T14:53:10.135Z,36.80
2023-06-25T14:55:41.406Z,37.10
2023-06-25T14:58:08.866Z,37.30
2023-06-25T15:00:37.167Z,37.30
2023-06-25T15:03:04.837Z,37.30
2023-06-25T15:05:31.846Z,37.40
2023-06-25T15:07:58.806Z,37.50
2023-06-25T15:10:25.731Z,37.70
2023-06-25T15:12:52.734Z,37.90
2023-06-25T15:15:19.709Z,38.00
2023-06-25T15:17:49.398Z,38.20
2023-06-25T15:20:16.747Z,38.30
2023-06-25T15:22:43.818Z,38.30
2023-06-25T15:25:11.486Z,38.20
2023-06-25T15:27:38.669Z,38.40
2023-06-25T15:30:05.955Z,38.40
2023-06-25T15:32:33.831Z,38.40
2023-06-25T15:35:02.497Z,38.20
2023-06-25T15:37:29.485Z,38.30
2023-06-25T15:39:56.724Z,38.30
2023-06-25T15:42:23.830Z,38.30
2023-06-25T15:44:50.970Z,38.30
2023-06-25T15:47:18.765Z,38.40
2023-06-25T15:49:49.646Z,38.70
2023-06-25T15:52:16.720Z,39.10
2023-06-25T15:54:44.383Z,39.10
2023-06-25T15:57:12.455Z,39.30
2023-06-25T15:59:39.460Z,39.30
2023-06-25T16:02:06.698Z,39.50
2023-06-25T16:04:34.268Z,39.50
2023-06-25T16:07:04.219Z,39.60
2023-06-25T16:09:32.936Z,39.70
2023-06-25T16:11:59.917Z,39.90
2023-06-25T16:14:29.006Z,40.30
2023-06-25T16:16:56.314Z,40.40
2023-06-25T16:19:48.650Z,40.30
2023-06-25T16:22:11.265Z,40.40
2023-06-25T16:24:38.572Z,40.20
2023-06-25T16:27:05.853Z,40.50
2023-06-25T16:29:33.126Z,40.60
2023-06-25T16:32:00.125Z,40.60
2023-06-25T16:34:27.058Z,40.80
2023-06-25T16:36:54.101Z,40.70
2023-06-25T16:39:22.127Z,40.70
2023-06-25T16:41:50.085Z,41.10
2023-06-25T16:44:17.014Z,40.90
2023-06-25T16:46:44.221Z,41.10
2023-06-25T16:49:11.146Z,41.30
2023-06-25T16:51:38.335Z,41.50
2023-06-25T16:54:05.380Z,41.70
2023-06-25T16:56:35.202Z,41.60
2023-06-25T16:59:02.188Z,41.40
2023-06-25T17:01:29.343Z,41.60
2023-06-25T17:03:56.503Z,41.80
2023-06-25T17:06:23.552Z,41.80
2023-06-25T17:08:50.498Z,42.00
2023-06-25T17:11:17.573Z,42.20
2023-06-25T17:13:44.706Z,42.10
2023-06-25T17:16:11.782Z,42.00
2023-06-25T17:18:38.828Z,42.00
2023-06-25T17:21:06.354Z,42.00
2023-06-25T17:23:34.899Z,42.00
2023-06-25T17:26:03.557Z,42.20
2023-06-25T17:28:30.610Z,42.60
2023-06-25T17:30:57.614Z,42.60
2023-06-25T17:33:24.608Z,42.90
2023-06-25T17:35:51.611Z,43.00
2023-06-25T17:38:19.724Z,43.20
2023-06-25T17:40:46.769Z,43.30
2023-06-25T17:43:15.280Z,43.50
2023-06-25T17:45:42.469Z,43.50
2023-06-25T17:48:09.509Z,43.70
2023-06-25T17:50:36.735Z,43.70
2023-06-25T17:53:05.302Z,43.80
2023-06-25T17:55:32.300Z,43.80
2023-06-25T17:58:05.227Z,43.80
2023-06-25T18:00:32.183Z,43.90
2023-06-25T18:03:00.814Z,43.90
2023-06-25T18:05:29.891Z,43.90
2023-06-25T18:07:57.011Z,43.80
2023-06-25T18:10:25.631Z,43.80
2023-06-25T18:12:53.738Z,43.70
2023-06-25T18:15:20.947Z,43.70
2023-06-25T18:17:49.443Z,43.70
2023-06-25T18:20:16.540Z,43.70
2023-06-25T18:22:50.680Z,43.60
2023-06-25T18:25:19.714Z,43.40
2023-06-25T18:27:46.608Z,43.10
2023-06-25T18:30:14.006Z,43.10
2023-06-25T18:32:40.997Z,43.10
2023-06-25T18:35:08.650Z,43.10
2023-06-25T18:37:35.737Z,43.00
2023-06-25T18:40:03.841Z,43.00
2023-06-25T18:42:30.759Z,42.80
2023-06-25T18:44:57.820Z,42.60
2023-06-25T18:47:24.878Z,42.50
2023-06-25T18:49:52.013Z,42.50
2023-06-25T18:52:19.471Z,42.50
2023-06-25T18:54:48.097Z,42.50
2023-06-25T18:57:15.928Z,42.50
2023-06-25T18:59:42.872Z,42.40
2023-06-25T19:02:09.867Z,42.20
2023-06-25T19:04:40.321Z,41.60
2023-06-25T19:07:07.345Z,40.70
2023-06-25T19:09:34.421Z,40.00
2023-06-25T19:12:01.535Z,39.20
2023-06-25T19:14:28.547Z,38.60
2023-06-25T19:16:55.533Z,38.00
2023-06-25T19:19:22.485Z,37.60
2023-06-25T19:21:50.912Z,37.10
2023-06-25T19:24:18.061Z,36.70
2023-06-25T19:26:46.746Z,36.30
2023-06-25T19:29:14.758Z,35.90
2023-06-25T19:31:41.913Z,35.50
2023-06-25T19:34:08.858Z,35.20
2023-06-25T19:36:35.889Z,34.90
2023-06-25T19:39:04.728Z,34.60
2023-06-25T19:41:32.280Z,34.30
2023-06-25T19:43:59.623Z,34.10
2023-06-25T19:46:27.872Z,34.00
2023-06-25T19:48:56.968Z,33.80
2023-06-25T19:51:24.035Z,33.60
2023-06-25T19:53:51.011Z,33.50
2023-06-25T19:56:18.135Z,33.30
2023-06-25T19:58:45.073Z,33.20
2023-06-25T20:01:12.194Z,33.10
2023-06-25T20:03:42.747Z,32.90
2023-06-25T20:06:10.660Z,32.80
2023-06-25T20:08:38.190Z,32.60
2023-06-25T20:11:06.326Z,32.40
2023-06-25T20:13:34.633Z,32.40
2023-06-25T20:16:02.452Z,32.20
2023-06-25T20:18:29.413Z,32.00
2023-06-25T20:20:56.454Z,31.60
2023-06-25T20:23:23.444Z,31.40
2023-06-25T20:25:50.503Z,31.30
2023-06-25T20:28:18.919Z,31.30
2023-06-25T20:30:46.980Z,31.20
2023-06-25T20:33:18.283Z,31.10
2023-06-25T20:35:46.231Z,31.00
2023-06-25T20:38:13.483Z,30.80
2023-06-25T20:40:40.871Z,30.90
2023-06-25T20:43:10.030Z,30.80
2023-06-25T20:45:38.881Z,30.70
2023-06-25T20:48:07.012Z,30.70
2023-06-25T20:50:38.001Z,30.70
2023-06-25T20:53:05.494Z,30.40
2023-06-25T20:55:32.687Z,30.40
2023-06-25T20:57:59.846Z,30.30
2023-06-25T21:00:26.783Z,30.20
2023-06-25T21:02:56.611Z,30.20
2023-06-25T21:05:24.377Z,30.10
2023-06-25T21:07:51.491Z,30.00
2023-06-25T21:10:19.722Z,29.90
2023-06-25T21:12:46.720Z,29.80
2023-06-25T21:15:13.789Z,29.70
2023-06-25T21:17:40.729Z,29.60
2023-06-25T21:20:08.035Z,29.60
2023-06-25T21:22:36.984Z,29.50
2023-06-25T21:25:05.264Z,29.40
2023-06-25T21:27:32.684Z,29.30
2023-06-25T21:30:02.065Z,29.30
2023-06-25T21:32:29.137Z,29.10
2023-06-25T21:34:56.336Z,29.10
2023-06-25T21:37:23.634Z,29.00
2023-06-25T21:39:50.613Z,29.00
2023-06-25T21:42:17.531Z,29.00
2023-06-25T21:44:44.760Z,29.00
2023-06-25T21:47:13.994Z,29.00
2023-06-25T21:49:41.042Z,28.90
2023-06-25T21:52:11.184Z,28.80
2023-06-25T21:54:38.232Z,28.80
2023-06-25T21:57:05.317Z,28.70
2023-06-25T21:59:33.675Z,28.60
2023-06-25T22:02:04.838Z,28.60
2023-06-25T22:04:31.920Z,28.50
2023-06-25T22:06:59.366Z,28.40
2023-06-25T22:09:26.536Z,28.40
2023-06-25T22:11:57.098Z,28.30
2023-06-25T22:14:26.118Z,28.20
2023-06-25T22:16:58.798Z,28.20
2023-06-25T22:19:28.551Z,28.10
2023-06-25T22:21:58.089Z,28.10
2023-06-25T22:24:29.775Z,28.10
2023-06-25T22:26:58.815Z,28.00
2023-06-25T22:29:41.504Z,27.90
2023-06-25T22:32:12.345Z,27.80
2023-06-25T22:34:39.849Z,27.70
2023-06-25T22:37:07.209Z,27.60
2023-06-25T22:39:34.461Z,27.60
2023-06-25T22:42:01.528Z,27.60
2023-06-25T22:44:28.496Z,27.50
2023-06-25T22:46:55.709Z,27.50
2023-06-25T22:49:33.343Z,27.40
2023-06-25T22:52:03.872Z,27.50
2023-06-25T22:54:30.872Z,27.40
2023-06-25T22:57:00.551Z,27.40
2023-06-25T22:59:28.764Z,27.30
2023-06-25T23:01:56.154Z,27.30
2023-06-25T23:04:24.525Z,27.20
2023-06-25T23:06:51.491Z,27.20
2023-06-25T23:09:19.828Z,27.10
2023-06-25T23:11:47.830Z,26.90
2023-06-25T23:14:14.976Z,26.90
2023-06-25T23:16:45.872Z,26.80
2023-06-25T23:19:12.843Z,26.70
2023-06-25T23:21:46.902Z,26.70
2023-06-25T23:24:15.490Z,26.60
2023-06-25T23:26:46.713Z,26.60
2023-06-25T23:29:16.470Z,26.70
2023-06-25T23:31:44.446Z,26.60
2023-06-25T23:34:11.853Z,26.50
2023-06-25T23:36:40.005Z,26.40
2023-06-25T23:39:07.329Z,26.30
2023-06-25T23:41:34.380Z,26.30
2023-06-25T23:44:02.512Z,26.40
2023-06-25T23:46:29.564Z,26.30
2023-06-25T23:48:58.773Z,26.30
2023-06-25T23:51:25.809Z,26.30
2023-06-25T23:53:52.930Z,26.20
2023-06-25T23:56:19.869Z,26.10
2023-06-25T23:58:47.014Z,26.00
